sensor_id;sensor_type;location;lat;lon;timestamp;pressure;altitude;pressure_sealevel;temperature;humidity
73564;BME280;61834;50.196;6.454;2023-02-28T00:02:21;97297.31;;;-1.51;74.91
73564;BME280;61834;50.196;6.454;2023-02-28T00:04:47;97288.16;;;-1.50;75.18
73564;BME280;61834;50.196;6.454;2023-02-28T00:07:18;97297.25;;;-1.46;75.58
73564;BME280;61834;50.196;6.454;2023-02-28T00:09:44;97302.56;;;-1.41;74.44
73564;BME280;61834;50.196;6.454;2023-02-28T00:12:09;97301.25;;;-1.43;75.34
73564;BME280;61834;50.196;6.454;2023-02-28T00:14:40;97294.56;;;-1.46;75.43
73564;BME280;61834;50.196;6.454;2023-02-28T00:17:05;97301.81;;;-1.46;75.83
73564;BME280;61834;50.196;6.454;2023-02-28T00:19:31;97299.38;;;-1.43;76.44
73564;BME280;61834;50.196;6.454;2023-02-28T00:21:56;97298.41;;;-1.28;75.72
73564;BME280;61834;50.196;6.454;2023-02-28T00:24:22;97302.19;;;-1.29;76.18
73564;BME280;61834;50.196;6.454;2023-02-28T00:26:47;97293.59;;;-1.31;76.26
73564;BME280;61834;50.196;6.454;2023-02-28T00:29:12;97303.38;;;-1.16;75.46
73564;BME280;61834;50.196;6.454;2023-02-28T00:31:38;97293.56;;;-1.26;77.55
73564;BME280;61834;50.196;6.454;2023-02-28T00:34:03;97295.09;;;-1.20;76.32
73564;BME280;61834;50.196;6.454;2023-02-28T00:36:30;97298.81;;;-1.16;76.29
73564;BME280;61834;50.196;6.454;2023-02-28T00:38:55;97299.16;;;-0.99;74.36
73564;BME280;61834;50.196;6.454;2023-02-28T00:41:21;97301.16;;;-1.09;75.26
73564;BME280;61834;50.196;6.454;2023-02-28T00:43:46;97298.81;;;-1.16;75.64
73564;BME280;61834;50.196;6.454;2023-02-28T00:46:12;97300.13;;;-1.13;76.69
73564;BME280;61834;50.196;6.454;2023-02-28T00:48:37;97305.28;;;-1.17;76.46
73564;BME280;61834;50.196;6.454;2023-02-28T00:51:03;97299.97;;;-1.22;76.01
73564;BME280;61834;50.196;6.454;2023-02-28T00:53:30;97296.66;;;-1.14;75.59
73564;BME280;61834;50.196;6.454;2023-02-28T00:55:57;97297.63;;;-1.28;77.84
73564;BME280;61834;50.196;6.454;2023-02-28T00:58:24;97303.53;;;-1.32;78.17
73564;BME280;61834;50.196;6.454;2023-02-28T01:00:51;97305.28;;;-1.17;76.14
73564;BME280;61834;50.196;6.454;2023-02-28T01:03:19;97308.81;;;-1.21;76.56
73564;BME280;61834;50.196;6.454;2023-02-28T01:05:45;97299.22;;;-1.27;77.21
73564;BME280;61834;50.196;6.454;2023-02-28T01:08:12;97297.38;;;-1.32;77.46
73564;BME280;61834;50.196;6.454;2023-02-28T01:10:39;97308.22;;;-1.42;77.77
73564;BME280;61834;50.196;6.454;2023-02-28T01:13:06;97310.50;;;-1.54;77.90
73564;BME280;61834;50.196;6.454;2023-02-28T01:15:32;97304.13;;;-1.63;78.61
73564;BME280;61834;50.196;6.454;2023-02-28T01:17:58;97302.78;;;-1.61;78.46
73564;BME280;61834;50.196;6.454;2023-02-28T01:20:24;97307.16;;;-1.70;78.53
73564;BME280;61834;50.196;6.454;2023-02-28T01:22:49;97307.34;;;-1.61;78.15
73564;BME280;61834;50.196;6.454;2023-02-28T01:25:15;97306.56;;;-1.67;78.63
73564;BME280;61834;50.196;6.454;2023-02-28T01:27:40;97298.59;;;-1.77;78.70
73564;BME280;61834;50.196;6.454;2023-02-28T01:30:07;97306.22;;;-1.84;80.32
73564;BME280;61834;50.196;6.454;2023-02-28T01:32:35;97298.03;;;-2.02;80.53
73564;BME280;61834;50.196;6.454;2023-02-28T01:35:00;97296.91;;;-1.96;81.53
73564;BME280;61834;50.196;6.454;2023-02-28T01:37:26;97299.34;;;-2.00;80.88
73564;BME280;61834;50.196;6.454;2023-02-28T01:39:52;97293.03;;;-2.14;81.53
73564;BME280;61834;50.196;6.454;2023-02-28T01:42:20;97294.66;;;-2.18;81.66
73564;BME280;61834;50.196;6.454;2023-02-28T01:45:02;97297.06;;;-2.16;81.32
73564;BME280;61834;50.196;6.454;2023-02-28T01:47:36;97297.94;;;-2.26;81.82
73564;BME280;61834;50.196;6.454;2023-02-28T01:50:06;97299.50;;;-2.20;81.24
73564;BME280;61834;50.196;6.454;2023-02-28T01:52:35;97305.28;;;-2.41;82.41
73564;BME280;61834;50.196;6.454;2023-02-28T01:55:02;97297.25;;;-2.41;82.01
73564;BME280;61834;50.196;6.454;2023-02-28T01:57:35;97290.88;;;-2.50;82.42
73564;BME280;61834;50.196;6.454;2023-02-28T02:00:24;97286.50;;;-2.41;81.57
73564;BME280;61834;50.196;6.454;2023-02-28T02:02:51;97295.44;;;-2.51;83.03
73564;BME280;61834;50.196;6.454;2023-02-28T02:05:24;97290.41;;;-2.63;83.02
73564;BME280;61834;50.196;6.454;2023-02-28T02:07:54;97291.44;;;-2.59;82.84
73564;BME280;61834;50.196;6.454;2023-02-28T02:16:02;97290.91;;;-2.55;82.06
73564;BME280;61834;50.196;6.454;2023-02-28T02:29:31;97276.31;;;-2.83;84.26
73564;BME280;61834;50.196;6.454;2023-02-28T02:35:24;97281.34;;;-2.72;84.36
73564;BME280;61834;50.196;6.454;2023-02-28T02:37:53;97279.22;;;-2.75;83.12
73564;BME280;61834;50.196;6.454;2023-02-28T02:40:26;97289.72;;;-2.83;83.57
73564;BME280;61834;50.196;6.454;2023-02-28T02:42:57;97284.41;;;-2.93;84.08
73564;BME280;61834;50.196;6.454;2023-02-28T02:45:37;97287.31;;;-2.85;85.08
73564;BME280;61834;50.196;6.454;2023-02-28T02:48:07;97288.75;;;-3.02;84.96
73564;BME280;61834;50.196;6.454;2023-02-28T02:50:41;97284.22;;;-3.17;85.75
73564;BME280;61834;50.196;6.454;2023-02-28T02:53:09;97280.66;;;-2.92;84.72
73564;BME280;61834;50.196;6.454;2023-02-28T02:55:41;97287.41;;;-3.10;86.77
73564;BME280;61834;50.196;6.454;2023-02-28T02:58:14;97277.19;;;-2.98;85.22
73564;BME280;61834;50.196;6.454;2023-02-28T03:00:48;97285.25;;;-3.03;85.84
73564;BME280;61834;50.196;6.454;2023-02-28T03:03:18;97282.56;;;-3.03;85.05
73564;BME280;61834;50.196;6.454;2023-02-28T03:05:50;97280.41;;;-2.96;85.24
73564;BME280;61834;50.196;6.454;2023-02-28T03:08:16;97277.72;;;-2.91;84.42
73564;BME280;61834;50.196;6.454;2023-02-28T03:10:43;97282.59;;;-3.08;85.81
73564;BME280;61834;50.196;6.454;2023-02-28T03:18:41;97282.56;;;-2.98;85.36
73564;BME280;61834;50.196;6.454;2023-02-28T03:23:50;97284.22;;;-3.17;86.62
73564;BME280;61834;50.196;6.454;2023-02-28T03:26:23;97278.94;;;-3.32;87.33
73564;BME280;61834;50.196;6.454;2023-02-28T03:28:56;97281.56;;;-3.22;85.98
73564;BME280;61834;50.196;6.454;2023-02-28T03:31:38;97284.56;;;-3.33;87.26
73564;BME280;61834;50.196;6.454;2023-02-28T03:34:12;97280.03;;;-3.38;87.15
73564;BME280;61834;50.196;6.454;2023-02-28T03:36:42;97284.00;;;-3.30;86.62
73564;BME280;61834;50.196;6.454;2023-02-28T03:39:18;97292.31;;;-3.32;86.75
73564;BME280;61834;50.196;6.454;2023-02-28T03:42:08;97294.97;;;-3.27;86.54
73564;BME280;61834;50.196;6.454;2023-02-28T03:44:45;97287.97;;;-3.13;85.98
73564;BME280;61834;50.196;6.454;2023-02-28T03:47:19;97284.19;;;-3.07;85.94
73564;BME280;61834;50.196;6.454;2023-02-28T03:49:50;97288.00;;;-3.23;86.91
73564;BME280;61834;50.196;6.454;2023-02-28T03:52:20;97291.50;;;-3.22;87.25
73564;BME280;61834;50.196;6.454;2023-02-28T03:54:51;97286.91;;;-3.22;86.43
73564;BME280;61834;50.196;6.454;2023-02-28T03:59:58;97280.31;;;-3.39;87.09
73564;BME280;61834;50.196;6.454;2023-02-28T04:02:24;97280.00;;;-3.33;86.62
73564;BME280;61834;50.196;6.454;2023-02-28T04:04:50;97277.38;;;-3.48;88.17
73564;BME280;61834;50.196;6.454;2023-02-28T04:07:17;97280.06;;;-3.48;86.88
73564;BME280;61834;50.196;6.454;2023-02-28T04:09:43;97285.69;;;-3.54;88.08
73564;BME280;61834;50.196;6.454;2023-02-28T04:12:09;97286.25;;;-3.62;87.69
73564;BME280;61834;50.196;6.454;2023-02-28T04:14:34;97277.41;;;-3.63;88.28
73564;BME280;61834;50.196;6.454;2023-02-28T04:17:00;97275.53;;;-3.57;88.15
73564;BME280;61834;50.196;6.454;2023-02-28T04:19:25;97272.34;;;-3.69;88.23
73564;BME280;61834;50.196;6.454;2023-02-28T04:21:52;97278.50;;;-3.69;88.77
73564;BME280;61834;50.196;6.454;2023-02-28T04:24:23;97279.56;;;-3.70;88.86
73564;BME280;61834;50.196;6.454;2023-02-28T04:26:53;97285.19;;;-3.71;88.89
73564;BME280;61834;50.196;6.454;2023-02-28T04:29:25;97277.19;;;-3.81;88.70
73564;BME280;61834;50.196;6.454;2023-02-28T04:31:52;97278.00;;;-3.91;89.51
73564;BME280;61834;50.196;6.454;2023-02-28T04:34:19;97281.50;;;-3.96;89.33
73564;BME280;61834;50.196;6.454;2023-02-28T04:36:46;97279.06;;;-4.02;89.48
73564;BME280;61834;50.196;6.454;2023-02-28T04:39:15;97276.38;;;-4.02;89.73
73564;BME280;61834;50.196;6.454;2023-02-28T04:41:40;97287.63;;;-4.00;89.75
73564;BME280;61834;50.196;6.454;2023-02-28T04:44:06;97287.91;;;-4.02;89.71
73564;BME280;61834;50.196;6.454;2023-02-28T04:46:31;97287.34;;;-3.94;88.84
73564;BME280;61834;50.196;6.454;2023-02-28T04:48:57;97283.63;;;-3.98;89.60
73564;BME280;61834;50.196;6.454;2023-02-28T04:51:23;97282.78;;;-3.78;88.84
73564;BME280;61834;50.196;6.454;2023-02-28T04:53:50;97289.25;;;-3.89;88.84
73564;BME280;61834;50.196;6.454;2023-02-28T04:56:17;97280.69;;;-4.06;89.60
73564;BME280;61834;50.196;6.454;2023-02-28T04:58:43;97293.50;;;-4.03;89.62
73564;BME280;61834;50.196;6.454;2023-02-28T05:03:43;97287.91;;;-4.12;90.23
73564;BME280;61834;50.196;6.454;2023-02-28T05:06:10;97288.16;;;-4.08;89.19
73564;BME280;61834;50.196;6.454;2023-02-28T05:08:36;97291.38;;;-4.11;89.16
73564;BME280;61834;50.196;6.454;2023-02-28T05:11:02;97290.31;;;-4.15;88.98
73564;BME280;61834;50.196;6.454;2023-02-28T05:13:29;97295.91;;;-4.17;88.88
73564;BME280;61834;50.196;6.454;2023-02-28T05:15:55;97300.22;;;-4.11;88.88
73564;BME280;61834;50.196;6.454;2023-02-28T05:18:20;97293.25;;;-4.17;89.37
73564;BME280;61834;50.196;6.454;2023-02-28T05:20:46;97297.53;;;-4.31;88.65
73564;BME280;61834;50.196;6.454;2023-02-28T05:23:12;97289.25;;;-4.24;88.96
73564;BME280;61834;50.196;6.454;2023-02-28T05:25:39;97294.59;;;-4.14;89.05
73564;BME280;61834;50.196;6.454;2023-02-28T05:28:05;97291.09;;;-4.30;88.38
73564;BME280;61834;50.196;6.454;2023-02-28T05:30:30;97291.38;;;-4.26;88.76
73564;BME280;61834;50.196;6.454;2023-02-28T05:32:57;97292.69;;;-4.34;88.75
73564;BME280;61834;50.196;6.454;2023-02-28T05:35:23;97298.84;;;-4.28;89.19
73564;BME280;61834;50.196;6.454;2023-02-28T05:37:48;97302.06;;;-4.36;89.20
73564;BME280;61834;50.196;6.454;2023-02-28T05:40:14;97300.69;;;-4.44;90.66
73564;BME280;61834;50.196;6.454;2023-02-28T05:42:41;97296.19;;;-4.33;89.39
73564;BME280;61834;50.196;6.454;2023-02-28T05:45:07;97298.03;;;-4.49;89.38
73564;BME280;61834;50.196;6.454;2023-02-28T05:47:34;97294.56;;;-4.49;89.17
73564;BME280;61834;50.196;6.454;2023-02-28T05:49:59;97296.69;;;-4.51;89.00
73564;BME280;61834;50.196;6.454;2023-02-28T05:52:26;97292.44;;;-4.52;89.08
73564;BME280;61834;50.196;6.454;2023-02-28T05:54:52;97291.91;;;-4.44;88.76
73564;BME280;61834;50.196;6.454;2023-02-28T05:57:17;97290.28;;;-4.50;88.72
73564;BME280;61834;50.196;6.454;2023-02-28T05:59:43;97283.88;;;-4.59;89.25
73564;BME280;61834;50.196;6.454;2023-02-28T06:02:13;97286.28;;;-4.58;89.48
73564;BME280;61834;50.196;6.454;2023-02-28T06:04:38;97292.16;;;-4.61;89.59
73564;BME280;61834;50.196;6.454;2023-02-28T06:07:06;97285.44;;;-4.63;89.66
73564;BME280;61834;50.196;6.454;2023-02-28T06:09:31;97294.28;;;-4.58;88.93
73564;BME280;61834;50.196;6.454;2023-02-28T06:12:00;97291.06;;;-4.65;89.63
73564;BME280;61834;50.196;6.454;2023-02-28T06:14:28;97294.56;;;-4.59;89.92
73564;BME280;61834;50.196;6.454;2023-02-28T06:16:53;97292.69;;;-4.39;88.88
73564;BME280;61834;50.196;6.454;2023-02-28T06:19:18;97293.75;;;-4.60;89.65
73564;BME280;61834;50.196;6.454;2023-02-28T06:21:44;97297.50;;;-4.61;89.13
73564;BME280;61834;50.196;6.454;2023-02-28T06:24:10;97301.75;;;-4.65;88.55
73564;BME280;61834;50.196;6.454;2023-02-28T06:26:35;97302.28;;;-4.63;88.42
73564;BME280;61834;50.196;6.454;2023-02-28T06:29:01;97307.59;;;-4.73;89.59
73564;BME280;61834;50.196;6.454;2023-02-28T06:31:28;97297.72;;;-4.77;90.25
73564;BME280;61834;50.196;6.454;2023-02-28T06:33:54;97311.84;;;-4.77;89.61
73564;BME280;61834;50.196;6.454;2023-02-28T06:36:20;97312.44;;;-4.65;88.84
73564;BME280;61834;50.196;6.454;2023-02-28T06:38:46;97318.56;;;-4.69;89.36
73564;BME280;61834;50.196;6.454;2023-02-28T06:41:16;97314.28;;;-4.70;89.65
73564;BME280;61834;50.196;6.454;2023-02-28T06:43:42;97315.63;;;-4.73;89.65
73564;BME280;61834;50.196;6.454;2023-02-28T06:46:11;97319.84;;;-4.82;89.86
73564;BME280;61834;50.196;6.454;2023-02-28T06:48:37;97332.25;;;-4.46;88.87
73564;BME280;61834;50.196;6.454;2023-02-28T06:51:07;97331.69;;;-4.58;88.74
73564;BME280;61834;50.196;6.454;2023-02-28T06:53:34;97339.69;;;-4.63;88.94
73564;BME280;61834;50.196;6.454;2023-02-28T06:56:03;97335.97;;;-4.52;88.67
73564;BME280;61834;50.196;6.454;2023-02-28T06:58:30;97340.75;;;-4.54;88.82
73564;BME280;61834;50.196;6.454;2023-02-28T07:00:56;97341.03;;;-4.45;88.48
73564;BME280;61834;50.196;6.454;2023-02-28T07:03:21;97345.34;;;-4.39;88.33
73564;BME280;61834;50.196;6.454;2023-02-28T07:05:48;97349.63;;;-4.38;88.24
73564;BME280;61834;50.196;6.454;2023-02-28T07:08:14;97345.88;;;-4.27;87.49
73564;BME280;61834;50.196;6.454;2023-02-28T07:10:40;97344.03;;;-4.22;87.29
73564;BME280;61834;50.196;6.454;2023-02-28T07:13:06;97344.03;;;-4.22;87.33
73564;BME280;61834;50.196;6.454;2023-02-28T07:15:32;97342.72;;;-4.19;86.91
73564;BME280;61834;50.196;6.454;2023-02-28T07:17:58;97347.78;;;-4.23;86.75
73564;BME280;61834;50.196;6.454;2023-02-28T07:20:24;97348.81;;;-4.29;87.90
73564;BME280;61834;50.196;6.454;2023-02-28T07:22:50;97347.53;;;-4.11;86.04
73564;BME280;61834;50.196;6.454;2023-02-28T07:25:26;97348.06;;;-3.99;86.52
73564;BME280;61834;50.196;6.454;2023-02-28T07:27:52;97349.13;;;-3.95;86.08
73564;BME280;61834;50.196;6.454;2023-02-28T07:30:18;97351.00;;;-3.75;84.78
73564;BME280;61834;50.196;6.454;2023-02-28T07:32:44;97349.13;;;-3.80;84.82
73564;BME280;61834;50.196;6.454;2023-02-28T07:35:09;97346.44;;;-3.75;84.42
73564;BME280;61834;50.196;6.454;2023-02-28T07:37:35;97354.47;;;-3.65;83.79
73564;BME280;61834;50.196;6.454;2023-02-28T07:40:08;97356.59;;;-3.72;84.72
73564;BME280;61834;50.196;6.454;2023-02-28T07:42:35;97351.78;;;-3.60;83.50
73564;BME280;61834;50.196;6.454;2023-02-28T07:45:04;97352.06;;;-3.51;83.25
73564;BME280;61834;50.196;6.454;2023-02-28T07:47:30;97344.28;;;-3.48;82.44
73564;BME280;61834;50.196;6.454;2023-02-28T07:49:56;97350.97;;;-3.50;83.52
73564;BME280;61834;50.196;6.454;2023-02-28T07:52:22;97346.13;;;-3.33;80.98
73564;BME280;61834;50.196;6.454;2023-02-28T07:54:49;97349.06;;;-3.30;81.07
73564;BME280;61834;50.196;6.454;2023-02-28T07:57:15;97352.81;;;-3.31;81.87
73564;BME280;61834;50.196;6.454;2023-02-28T07:59:41;97353.84;;;-3.17;80.89
73564;BME280;61834;50.196;6.454;2023-02-28T08:02:08;97363.50;;;-3.16;81.25
73564;BME280;61834;50.196;6.454;2023-02-28T08:04:35;97350.31;;;-2.97;80.08
73564;BME280;61834;50.196;6.454;2023-02-28T08:07:01;97347.91;;;-3.04;79.62
73564;BME280;61834;50.196;6.454;2023-02-28T08:09:26;97353.72;;;-2.82;78.76
73564;BME280;61834;50.196;6.454;2023-02-28T08:11:52;97350.25;;;-2.77;79.31
73564;BME280;61834;50.196;6.454;2023-02-28T08:14:17;97347.00;;;-2.74;78.89
73564;BME280;61834;50.196;6.454;2023-02-28T08:16:43;97346.19;;;-2.70;78.56
73564;BME280;61834;50.196;6.454;2023-02-28T08:19:08;97338.69;;;-2.68;79.45
73564;BME280;61834;50.196;6.454;2023-02-28T08:21:34;97341.13;;;-2.76;79.31
73564;BME280;61834;50.196;6.454;2023-02-28T08:23:59;97344.88;;;-2.77;79.14
73564;BME280;61834;50.196;6.454;2023-02-28T08:26:25;97338.66;;;-2.63;79.23
73564;BME280;61834;50.196;6.454;2023-02-28T08:28:51;97337.19;;;-2.45;79.07
73564;BME280;61834;50.196;6.454;2023-02-28T08:31:17;97338.47;;;-2.32;77.13
73564;BME280;61834;50.196;6.454;2023-02-28T08:33:43;97337.81;;;-2.14;75.11
73564;BME280;61834;50.196;6.454;2023-02-28T08:36:10;97335.53;;;-2.31;76.40
73564;BME280;61834;50.196;6.454;2023-02-28T08:38:36;97335.19;;;-2.19;75.93
73564;BME280;61834;50.196;6.454;2023-02-28T08:41:05;97326.31;;;-2.20;76.27
73564;BME280;61834;50.196;6.454;2023-02-28T08:43:33;97331.97;;;-2.21;75.34
73564;BME280;61834;50.196;6.454;2023-02-28T08:45:59;97329.13;;;-2.01;74.54
73564;BME280;61834;50.196;6.454;2023-02-28T08:48:29;97331.06;;;-2.07;74.60
73564;BME280;61834;50.196;6.454;2023-02-28T08:51:00;97338.78;;;-1.95;73.97
73564;BME280;61834;50.196;6.454;2023-02-28T08:53:26;97329.56;;;-1.84;73.29
73564;BME280;61834;50.196;6.454;2023-02-28T08:55:59;97330.91;;;-1.87;73.60
73564;BME280;61834;50.196;6.454;2023-02-28T08:58:26;97327.06;;;-1.76;73.72
73564;BME280;61834;50.196;6.454;2023-02-28T09:00:52;97339.50;;;-1.90;72.53
73564;BME280;61834;50.196;6.454;2023-02-28T09:03:18;97337.56;;;-1.79;72.05
73564;BME280;61834;50.196;6.454;2023-02-28T09:06:00;97348.28;;;-1.46;71.70
73564;BME280;61834;50.196;6.454;2023-02-28T09:08:27;97347.94;;;-1.39;71.01
73564;BME280;61834;50.196;6.454;2023-02-28T09:10:53;97342.94;;;-1.22;70.62
73564;BME280;61834;50.196;6.454;2023-02-28T09:13:21;97341.16;;;-1.08;69.37
73564;BME280;61834;50.196;6.454;2023-02-28T09:15:47;97342.72;;;-1.02;69.71
73564;BME280;61834;50.196;6.454;2023-02-28T09:18:12;97341.88;;;-0.97;69.18
73564;BME280;61834;50.196;6.454;2023-02-28T09:20:38;97344.81;;;-1.22;71.26
73564;BME280;61834;50.196;6.454;2023-02-28T09:23:05;97341.34;;;-0.99;68.28
73564;BME280;61834;50.196;6.454;2023-02-28T09:25:31;97343.03;;;-1.32;70.11
73564;BME280;61834;50.196;6.454;2023-02-28T09:27:56;97348.88;;;-1.25;68.96
73564;BME280;61834;50.196;6.454;2023-02-28T09:30:22;97345.41;;;-1.02;68.77
73564;BME280;61834;50.196;6.454;2023-02-28T09:32:47;97346.25;;;-1.06;68.64
73564;BME280;61834;50.196;6.454;2023-02-28T09:35:18;97340.34;;;-1.08;69.04
73564;BME280;61834;50.196;6.454;2023-02-28T09:37:43;97340.19;;;-0.93;67.96
73564;BME280;61834;50.196;6.454;2023-02-28T09:40:10;97348.53;;;-0.71;68.63
73564;BME280;61834;50.196;6.454;2023-02-28T09:42:36;97338.81;;;-0.25;64.87
73564;BME280;61834;50.196;6.454;2023-02-28T09:45:11;97338.22;;;-0.04;62.64
73564;BME280;61834;50.196;6.454;2023-02-28T09:47:43;97336.50;;;-0.37;63.57
73564;BME280;61834;50.196;6.454;2023-02-28T09:50:17;97341.31;;;0.22;59.53
73564;BME280;61834;50.196;6.454;2023-02-28T09:52:48;97344.31;;;0.53;59.93
73564;BME280;61834;50.196;6.454;2023-02-28T09:57:42;97343.69;;;0.24;51.97
73564;BME280;61834;50.196;6.454;2023-02-28T10:00:13;97347.06;;;-0.03;53.07
73564;BME280;61834;50.196;6.454;2023-02-28T10:05:21;97343.91;;;0.27;53.21
73564;BME280;61834;50.196;6.454;2023-02-28T10:10:41;97329.03;;;0.48;52.22
73564;BME280;61834;50.196;6.454;2023-02-28T10:16:25;97326.75;;;0.55;51.68
73564;BME280;61834;50.196;6.454;2023-02-28T10:18:57;97323.88;;;0.52;52.07
73564;BME280;61834;50.196;6.454;2023-02-28T10:21:28;97333.69;;;0.75;52.20
73564;BME280;61834;50.196;6.454;2023-02-28T10:24:19;97324.66;;;0.66;51.90
73564;BME280;61834;50.196;6.454;2023-02-28T10:26:47;97323.78;;;0.57;51.67
73564;BME280;61834;50.196;6.454;2023-02-28T10:29:13;97319.47;;;0.56;52.04
73564;BME280;61834;50.196;6.454;2023-02-28T10:31:39;97319.72;;;0.86;51.30
73564;BME280;61834;50.196;6.454;2023-02-28T10:34:05;97321.63;;;0.86;50.95
73564;BME280;61834;50.196;6.454;2023-02-28T10:36:31;97322.03;;;0.47;52.00
73564;BME280;61834;50.196;6.454;2023-02-28T10:38:57;97323.59;;;0.35;51.01
73564;BME280;61834;50.196;6.454;2023-02-28T10:41:32;97317.91;;;0.95;53.33
73564;BME280;61834;50.196;6.454;2023-02-28T10:44:18;97323.63;;;1.21;52.76
73564;BME280;61834;50.196;6.454;2023-02-28T10:46:45;97314.19;;;1.59;53.98
73564;BME280;61834;50.196;6.454;2023-02-28T10:49:24;97315.25;;;1.85;52.51
73564;BME280;61834;50.196;6.454;2023-02-28T10:51:56;97311.56;;;1.68;50.12
73564;BME280;61834;50.196;6.454;2023-02-28T10:54:34;97309.72;;;1.90;50.88
73564;BME280;61834;50.196;6.454;2023-02-28T10:57:18;97311.09;;;2.01;51.46
73564;BME280;61834;50.196;6.454;2023-02-28T10:59:44;97306.38;;;2.07;50.80
73564;BME280;61834;50.196;6.454;2023-02-28T11:02:33;97310.75;;;2.38;50.72
73564;BME280;61834;50.196;6.454;2023-02-28T11:04:59;97311.28;;;2.27;50.51
73564;BME280;61834;50.196;6.454;2023-02-28T11:07:26;97316.22;;;2.55;50.90
73564;BME280;61834;50.196;6.454;2023-02-28T11:09:55;97320.22;;;1.92;51.32
73564;BME280;61834;50.196;6.454;2023-02-28T11:12:47;97312.16;;;1.78;52.64
73564;BME280;61834;50.196;6.454;2023-02-28T11:15:24;97316.19;;;1.54;51.20
73564;BME280;61834;50.196;6.454;2023-02-28T11:18:30;97314.72;;;1.34;51.13
73564;BME280;61834;50.196;6.454;2023-02-28T11:20:57;97315.91;;;0.87;52.32
73564;BME280;61834;50.196;6.454;2023-02-28T11:23:26;97303.84;;;1.25;51.16
73564;BME280;61834;50.196;6.454;2023-02-28T11:25:56;97305.91;;;1.42;52.64
73564;BME280;61834;50.196;6.454;2023-02-28T11:28:32;97297.41;;;2.42;50.12
73564;BME280;61834;50.196;6.454;2023-02-28T11:33:50;97286.38;;;4.75;46.76
73564;BME280;61834;50.196;6.454;2023-02-28T11:36:27;97292.59;;;4.67;49.01
73564;BME280;61834;50.196;6.454;2023-02-28T11:38:54;97278.41;;;6.16;44.47
73564;BME280;61834;50.196;6.454;2023-02-28T11:41:51;97299.97;;;5.71;41.71
73564;BME280;61834;50.196;6.454;2023-02-28T11:47:17;97296.34;;;3.86;45.87
73564;BME280;61834;50.196;6.454;2023-02-28T11:55:17;97294.50;;;3.47;47.35
73564;BME280;61834;50.196;6.454;2023-02-28T12:01:11;97295.03;;;3.02;50.77
73564;BME280;61834;50.196;6.454;2023-02-28T12:06:50;97297.28;;;2.25;50.27
73564;BME280;61834;50.196;6.454;2023-02-28T12:26:41;97257.75;;;5.24;43.73
73564;BME280;61834;50.196;6.454;2023-02-28T12:29:19;97257.06;;;6.26;41.28
73564;BME280;61834;50.196;6.454;2023-02-28T12:32:12;97260.44;;;6.44;38.58
73564;BME280;61834;50.196;6.454;2023-02-28T12:34:44;97270.84;;;4.13;45.34
73564;BME280;61834;50.196;6.454;2023-02-28T12:37:41;97263.69;;;4.00;46.40
73564;BME280;61834;50.196;6.454;2023-02-28T12:40:11;97269.38;;;3.55;45.36
73564;BME280;61834;50.196;6.454;2023-02-28T12:42:43;97259.72;;;3.07;49.32
73564;BME280;61834;50.196;6.454;2023-02-28T12:45:24;97259.81;;;3.58;47.69
73564;BME280;61834;50.196;6.454;2023-02-28T12:47:54;97247.38;;;5.26;44.49
73564;BME280;61834;50.196;6.454;2023-02-28T12:50:21;97265.44;;;4.84;43.63
73564;BME280;61834;50.196;6.454;2023-02-28T12:53:06;97246.78;;;6.11;41.75
73564;BME280;61834;50.196;6.454;2023-02-28T12:55:50;97246.94;;;5.94;40.22
73564;BME280;61834;50.196;6.454;2023-02-28T13:09:53;97252.19;;;4.83;45.08
73564;BME280;61834;50.196;6.454;2023-02-28T13:12:19;97255.09;;;4.69;43.91
73564;BME280;61834;50.196;6.454;2023-02-28T13:14:45;97239.81;;;5.61;41.10
73564;BME280;61834;50.196;6.454;2023-02-28T13:17:12;97234.31;;;4.90;44.04
73564;BME280;61834;50.196;6.454;2023-02-28T13:22:39;97243.25;;;5.20;44.13
73564;BME280;61834;50.196;6.454;2023-02-28T13:28:00;97243.78;;;5.13;42.82
73564;BME280;61834;50.196;6.454;2023-02-28T13:44:07;97228.25;;;6.13;41.83
73564;BME280;61834;50.196;6.454;2023-02-28T13:46:36;97231.97;;;6.41;41.92
73564;BME280;61834;50.196;6.454;2023-02-28T13:51:48;97229.13;;;7.43;40.03
73564;BME280;61834;50.196;6.454;2023-02-28T14:03:00;97225.97;;;6.15;38.71
73564;BME280;61834;50.196;6.454;2023-02-28T14:05:33;97220.53;;;5.74;41.49
73564;BME280;61834;50.196;6.454;2023-02-28T14:08:05;97224.59;;;6.99;40.70
73564;BME280;61834;50.196;6.454;2023-02-28T14:10:41;97230.66;;;6.27;39.28
73564;BME280;61834;50.196;6.454;2023-02-28T14:15:55;97225.50;;;6.34;39.86
73564;BME280;61834;50.196;6.454;2023-02-28T14:21:03;97226.94;;;6.76;38.34
73564;BME280;61834;50.196;6.454;2023-02-28T14:26:49;97221.56;;;5.90;39.72
73564;BME280;61834;50.196;6.454;2023-02-28T14:29:34;97230.50;;;6.44;39.46
73564;BME280;61834;50.196;6.454;2023-02-28T14:34:54;97223.63;;;6.59;41.28
73564;BME280;61834;50.196;6.454;2023-02-28T14:37:29;97218.97;;;5.44;42.70
73564;BME280;61834;50.196;6.454;2023-02-28T14:39:57;97215.28;;;6.88;38.08
73564;BME280;61834;50.196;6.454;2023-02-28T14:44:54;97215.19;;;6.07;39.30
73564;BME280;61834;50.196;6.454;2023-02-28T14:47:27;97216.16;;;6.56;38.44
73564;BME280;61834;50.196;6.454;2023-02-28T14:49:53;97218.59;;;5.54;39.98
73564;BME280;61834;50.196;6.454;2023-02-28T14:52:22;97218.69;;;5.66;41.20
73564;BME280;61834;50.196;6.454;2023-02-28T14:54:57;97215.75;;;5.71;39.43
73564;BME280;61834;50.196;6.454;2023-02-28T14:57:27;97204.16;;;6.81;40.19
73564;BME280;61834;50.196;6.454;2023-02-28T15:00:02;97202.13;;;6.00;39.03
73564;BME280;61834;50.196;6.454;2023-02-28T15:02:31;97197.69;;;7.33;37.42
73564;BME280;61834;50.196;6.454;2023-02-28T15:05:25;97199.56;;;6.16;41.31
73564;BME280;61834;50.196;6.454;2023-02-28T15:07:49;97209.28;;;6.05;38.38
73564;BME280;61834;50.196;6.454;2023-02-28T15:10:26;97209.88;;;5.49;40.81
73564;BME280;61834;50.196;6.454;2023-02-28T15:13:26;97209.34;;;5.96;39.47
73564;BME280;61834;50.196;6.454;2023-02-28T15:15:59;97203.22;;;6.65;40.73
73564;BME280;61834;50.196;6.454;2023-02-28T15:21:06;97208.00;;;5.41;42.15
73564;BME280;61834;50.196;6.454;2023-02-28T15:23:34;97203.25;;;5.58;42.47
73564;BME280;61834;50.196;6.454;2023-02-28T15:26:01;97214.38;;;5.15;42.97
73564;BME280;61834;50.196;6.454;2023-02-28T15:28:28;97205.53;;;5.48;42.36
73564;BME280;61834;50.196;6.454;2023-02-28T15:31:02;97213.34;;;5.29;41.07
73564;BME280;61834;50.196;6.454;2023-02-28T15:33:30;97221.19;;;4.92;44.23